createdAt,value
2022-10-23T00:01:50.325Z,13.00
2022-10-23T00:04:22.308Z,12.98
2022-10-23T00:06:52.597Z,12.97
2022-10-23T00:09:23.723Z,12.96
2022-10-23T00:11:54.021Z,12.95
2022-10-23T00:14:25.860Z,12.94
2022-10-23T00:16:55.855Z,12.91
2022-10-23T00:19:26.428Z,12.89
2022-10-23T00:21:56.495Z,12.87
2022-10-23T00:24:28.147Z,12.86
2022-10-23T00:26:58.147Z,12.83
2022-10-23T00:29:28.362Z,12.76
2022-10-23T00:31:58.418Z,12.74
2022-10-23T00:34:30.126Z,12.71
2022-10-23T00:37:00.101Z,12.67
2022-10-23T00:39:30.099Z,12.64
2022-10-23T00:42:00.316Z,12.62
2022-10-23T00:44:49.333Z,12.60
2022-10-23T00:47:20.372Z,12.57
2022-10-23T00:49:50.570Z,12.56
2022-10-23T00:52:20.629Z,12.53
2022-10-23T00:54:56.569Z,12.51
2022-10-23T01:00:01.904Z,12.46
2022-10-23T01:02:32.005Z,12.44
2022-10-23T01:05:03.699Z,12.42
2022-10-23T01:07:44.808Z,12.42
2022-10-23T01:10:22.070Z,12.42
2022-10-23T01:12:56.463Z,12.42
2022-10-23T01:15:32.264Z,12.42
2022-10-23T01:18:06.686Z,12.43
2022-10-23T01:20:46.747Z,12.44
2022-10-23T01:23:23.432Z,12.46
2022-10-23T01:26:00.303Z,12.46
2022-10-23T01:28:32.675Z,12.44
2022-10-23T01:31:08.421Z,12.44
2022-10-23T01:33:40.759Z,12.44
2022-10-23T01:36:14.040Z,12.43
2022-10-23T01:38:47.520Z,12.41
2022-10-23T01:41:20.759Z,12.33
2022-10-23T01:43:54.186Z,12.30
2022-10-23T01:46:25.731Z,12.32
2022-10-23T01:48:57.237Z,12.33
2022-10-23T01:51:30.629Z,12.34
2022-10-23T01:54:01.385Z,12.33
2022-10-23T01:56:34.065Z,12.32
2022-10-23T01:59:06.325Z,12.31
2022-10-23T02:01:41.849Z,12.28
2022-10-23T02:04:15.341Z,12.27
2022-10-23T02:06:45.519Z,12.26
2022-10-23T02:09:15.604Z,12.25
2022-10-23T02:11:52.033Z,12.22
2022-10-23T02:14:25.477Z,12.25
2022-10-23T02:16:57.156Z,12.26
2022-10-23T02:19:30.464Z,12.27
2022-10-23T02:22:10.319Z,12.29
2022-10-23T02:24:44.020Z,12.32
2022-10-23T02:27:16.362Z,12.29
2022-10-23T02:29:48.171Z,12.28
2022-10-23T02:32:22.709Z,12.26
2022-10-23T02:34:52.819Z,12.22
2022-10-23T02:37:24.620Z,12.20
2022-10-23T02:39:55.477Z,12.16
2022-10-23T02:42:30.938Z,12.14
2022-10-23T02:45:05.143Z,12.12
2022-10-23T02:47:43.229Z,12.10
2022-10-23T02:50:18.933Z,12.07
2022-10-23T02:52:54.180Z,12.06
2022-10-23T02:55:31.397Z,12.05
2022-10-23T02:58:05.738Z,12.07
2022-10-23T03:00:37.071Z,12.08
2022-10-23T03:03:12.731Z,12.07
2022-10-23T03:05:45.476Z,12.07
2022-10-23T03:08:15.956Z,12.09
2022-10-23T03:10:46.061Z,12.12
2022-10-23T03:13:19.747Z,12.10
2022-10-23T03:15:49.826Z,12.11
2022-10-23T03:18:20.661Z,12.13
2022-10-23T03:20:50.709Z,12.14
2022-10-23T03:23:22.328Z,12.15
2022-10-23T03:25:53.047Z,12.16
2022-10-23T03:28:23.223Z,12.18
2022-10-23T03:30:53.215Z,12.19
2022-10-23T03:33:24.500Z,12.19
2022-10-23T03:35:54.584Z,12.18
2022-10-23T03:38:25.517Z,12.14
2022-10-23T03:40:55.557Z,12.11
2022-10-23T03:43:27.253Z,12.05
2022-10-23T03:45:58.032Z,12.00
2022-10-23T03:48:28.088Z,11.96
2022-10-23T03:50:58.086Z,11.90
2022-10-23T03:53:29.005Z,11.87
2022-10-23T03:55:59.127Z,11.84
2022-10-23T03:58:29.768Z,11.85
2022-10-23T04:01:00.214Z,11.87
2022-10-23T04:03:31.356Z,11.87
2022-10-23T04:06:01.439Z,11.88
2022-10-23T04:08:31.668Z,11.86
2022-10-23T04:11:01.780Z,11.85
2022-10-23T04:13:32.678Z,11.86
2022-10-23T04:16:03.006Z,11.88
2022-10-23T04:18:33.100Z,11.90
2022-10-23T04:21:03.172Z,11.92
2022-10-23T04:23:34.883Z,11.94
2022-10-23T04:26:05.183Z,11.94
2022-10-23T04:28:35.343Z,11.93
2022-10-23T04:31:05.422Z,11.92
2022-10-23T04:33:36.302Z,11.91
2022-10-23T04:36:06.863Z,11.92
2022-10-23T04:38:36.972Z,11.91
2022-10-23T04:41:07.273Z,11.93
2022-10-23T04:43:38.192Z,11.94
2022-10-23T04:46:08.861Z,11.95
2022-10-23T04:48:39.023Z,11.96
2022-10-23T04:51:09.060Z,11.97
2022-10-23T04:53:40.554Z,11.97
2022-10-23T04:56:13.861Z,11.95
2022-10-23T04:58:43.981Z,11.95
2022-10-23T05:01:14.088Z,11.95
2022-10-23T05:03:45.906Z,11.96
2022-10-23T05:06:16.007Z,11.96
2022-10-23T05:08:46.049Z,11.95
2022-10-23T05:11:16.085Z,11.95
2022-10-23T05:13:47.090Z,11.95
2022-10-23T05:16:27.317Z,11.94
2022-10-23T05:18:58.427Z,11.92
2022-10-23T05:21:30.964Z,11.92
2022-10-23T05:24:02.808Z,11.94
2022-10-23T05:26:33.711Z,11.96
2022-10-23T05:29:03.831Z,11.97
2022-10-23T05:31:35.278Z,12.00
2022-10-23T05:34:08.713Z,12.00
2022-10-23T05:36:41.254Z,11.99
2022-10-23T05:39:11.301Z,12.00
2022-10-23T05:41:41.451Z,12.02
2022-10-23T05:44:11.518Z,12.05
2022-10-23T05:46:43.217Z,12.09
2022-10-23T05:49:13.297Z,12.11
2022-10-23T05:51:43.306Z,12.12
2022-10-23T05:54:13.408Z,12.12
2022-10-23T05:56:43.440Z,12.11
2022-10-23T05:59:13.545Z,12.13
2022-10-23T06:01:43.714Z,12.14
2022-10-23T06:04:13.811Z,12.15
2022-10-23T06:06:45.747Z,12.16
2022-10-23T06:09:15.966Z,12.15
2022-10-23T06:11:45.958Z,12.21
2022-10-23T06:14:16.793Z,12.27
2022-10-23T06:16:46.910Z,12.30
2022-10-23T06:19:17.079Z,12.33
2022-10-23T06:21:47.087Z,12.37
2022-10-23T06:24:17.896Z,12.44
2022-10-23T06:26:48.165Z,12.49
2022-10-23T06:29:18.461Z,12.53
2022-10-23T06:31:48.480Z,12.52
2022-10-23T06:34:18.518Z,12.51
2022-10-23T06:36:48.592Z,12.48
2022-10-23T06:39:18.670Z,12.50
2022-10-23T06:41:49.004Z,12.50
2022-10-23T06:44:19.081Z,12.51
2022-10-23T06:46:49.268Z,12.54
2022-10-23T06:49:19.582Z,12.58
2022-10-23T06:51:49.789Z,12.61
2022-10-23T06:54:20.009Z,12.63
2022-10-23T06:56:50.044Z,12.62
2022-10-23T06:59:20.648Z,12.60
2022-10-23T07:01:50.902Z,12.62
2022-10-23T07:04:21.212Z,12.62
2022-10-23T07:06:51.242Z,12.66
2022-10-23T07:09:21.605Z,12.72
2022-10-23T07:11:51.616Z,12.77
2022-10-23T07:14:22.485Z,12.80
2022-10-23T07:16:52.502Z,12.81
2022-10-23T07:19:22.568Z,12.83
2022-10-23T07:21:52.790Z,12.88
2022-10-23T07:24:23.603Z,12.89
2022-10-23T07:26:53.661Z,12.88
2022-10-23T07:29:23.666Z,12.92
2022-10-23T07:31:53.717Z,12.99
2022-10-23T07:34:24.547Z,13.07
2022-10-23T07:36:54.951Z,13.14
2022-10-23T07:39:25.146Z,13.21
2022-10-23T07:41:55.186Z,13.28
2022-10-23T07:44:27.632Z,13.39
2022-10-23T07:46:57.985Z,13.48
2022-10-23T07:49:28.080Z,13.54
2022-10-23T07:51:58.914Z,13.59
2022-10-23T07:54:29.029Z,13.60
2022-10-23T07:56:59.513Z,13.61
2022-10-23T07:59:29.555Z,13.64
2022-10-23T08:01:59.887Z,13.71
2022-10-23T08:04:30.984Z,13.80
2022-10-23T08:07:01.264Z,13.87
2022-10-23T08:09:31.341Z,13.88
2022-10-23T08:12:01.601Z,13.88
2022-10-23T08:14:31.659Z,13.87
2022-10-23T08:19:32.675Z,13.85
2022-10-23T08:22:02.804Z,13.85
2022-10-23T08:24:33.656Z,13.89
2022-10-23T08:27:03.724Z,13.99
2022-10-23T08:29:33.902Z,14.05
2022-10-23T08:32:04.012Z,14.11
2022-10-23T08:34:34.067Z,14.11
2022-10-23T08:37:04.105Z,14.10
2022-10-23T08:39:34.117Z,14.14
2022-10-23T08:42:04.276Z,14.19
2022-10-23T08:44:37.563Z,14.31
2022-10-23T08:47:09.705Z,14.38
2022-10-23T08:49:45.508Z,14.43
2022-10-23T08:52:18.603Z,14.50
2022-10-23T08:54:54.807Z,14.52
2022-10-23T08:57:25.244Z,14.55
2022-10-23T08:59:58.811Z,14.61
2022-10-23T09:02:31.113Z,14.63
2022-10-23T09:05:01.232Z,14.70
2022-10-23T09:07:37.727Z,14.77
2022-10-23T09:10:26.205Z,14.85
2022-10-23T09:12:58.231Z,14.90
2022-10-23T09:15:31.844Z,14.89
2022-10-23T09:18:04.827Z,14.83
2022-10-23T09:20:37.545Z,14.79
2022-10-23T09:23:12.951Z,14.82
2022-10-23T09:25:43.187Z,14.84
2022-10-23T09:28:18.495Z,14.91
2022-10-23T09:30:49.012Z,14.98
2022-10-23T09:33:20.615Z,15.11
2022-10-23T09:35:54.877Z,15.24
2022-10-23T09:38:28.444Z,15.32
2022-10-23T09:40:59.960Z,15.34
2022-10-23T09:43:30.365Z,15.32
2022-10-23T09:46:02.851Z,15.34
2022-10-23T09:48:32.981Z,15.49
2022-10-23T09:51:03.842Z,15.62
2022-10-23T09:53:39.459Z,15.77
2022-10-23T09:56:28.892Z,15.85
2022-10-23T09:59:00.148Z,15.96
2022-10-23T10:01:31.370Z,16.07
2022-10-23T10:04:02.017Z,16.33
2022-10-23T10:06:33.188Z,16.61
2022-10-23T10:09:03.809Z,16.80
2022-10-23T10:11:36.959Z,17.04
2022-10-23T10:14:32.058Z,17.12
2022-10-23T10:17:04.745Z,17.06
2022-10-23T10:19:40.658Z,16.89
2022-10-23T10:22:18.848Z,16.75
2022-10-23T10:24:53.654Z,16.67
2022-10-23T10:27:32.680Z,16.56
2022-10-23T10:30:12.108Z,16.44
2022-10-23T10:32:46.621Z,16.39
2022-10-23T10:35:24.974Z,16.40
2022-10-23T10:38:01.369Z,16.56
2022-10-23T10:40:33.962Z,16.72
2022-10-23T10:43:17.014Z,16.80
2022-10-23T10:45:48.376Z,16.95
2022-10-23T10:48:35.381Z,17.05
2022-10-23T10:51:08.506Z,17.16
2022-10-23T10:53:48.388Z,17.25
2022-10-23T10:56:20.132Z,17.32
2022-10-23T10:58:52.685Z,17.36
2022-10-23T11:01:26.712Z,17.38
2022-10-23T11:03:59.834Z,17.45
2022-10-23T11:06:31.623Z,17.50
2022-10-23T11:09:19.813Z,17.52
2022-10-23T11:11:51.508Z,17.54
2022-10-23T11:14:23.090Z,17.55
2022-10-23T11:16:54.270Z,17.58
2022-10-23T11:19:26.688Z,17.62
2022-10-23T11:21:58.125Z,17.64
2022-10-23T11:24:51.516Z,17.62
2022-10-23T11:27:35.496Z,17.57
2022-10-23T11:30:26.113Z,17.52
2022-10-23T11:33:28.064Z,17.58
2022-10-23T11:36:08.759Z,17.63
2022-10-23T11:38:39.781Z,17.68
2022-10-23T11:41:25.370Z,17.74
2022-10-23T11:44:01.674Z,17.83
2022-10-23T11:46:32.789Z,17.92
2022-10-23T11:49:21.668Z,17.98
2022-10-23T11:52:00.412Z,18.05
2022-10-23T11:54:30.763Z,18.12
2022-10-23T11:57:12.221Z,18.23
2022-10-23T11:59:52.229Z,18.29
2022-10-23T12:02:29.367Z,18.37
2022-10-23T12:05:01.327Z,18.45
2022-10-23T12:07:32.943Z,18.46
2022-10-23T12:10:04.482Z,18.49
2022-10-23T12:12:43.331Z,18.51
2022-10-23T12:15:24.843Z,18.49
2022-10-23T12:17:56.054Z,18.50
2022-10-23T12:20:37.913Z,18.56
2022-10-23T12:23:16.044Z,18.62
2022-10-23T12:25:53.291Z,18.66
2022-10-23T12:28:30.233Z,18.68
2022-10-23T12:31:03.970Z,18.69
2022-10-23T12:33:38.998Z,18.70
2022-10-23T12:36:17.915Z,18.72
2022-10-23T12:38:48.541Z,18.74
2022-10-23T12:41:20.183Z,18.81
2022-10-23T12:43:54.945Z,18.83
2022-10-23T12:46:30.412Z,18.84
2022-10-23T12:52:17.460Z,18.88
2022-10-23T12:54:47.913Z,18.86
2022-10-23T12:57:21.101Z,18.81
2022-10-23T12:59:52.859Z,18.81
2022-10-23T13:02:28.545Z,18.76
2022-10-23T13:05:01.148Z,18.68
2022-10-23T13:07:34.917Z,18.62
2022-10-23T13:10:11.436Z,18.58
2022-10-23T13:12:51.928Z,18.52
2022-10-23T13:15:23.098Z,18.49
2022-10-23T13:18:03.518Z,18.46
2022-10-23T13:20:35.483Z,18.49
2022-10-23T13:23:13.142Z,18.60
2022-10-23T13:25:43.305Z,18.67
2022-10-23T13:28:22.687Z,18.70
2022-10-23T13:31:03.975Z,18.71
2022-10-23T13:33:36.362Z,18.72
2022-10-23T13:36:08.314Z,18.74
2022-10-23T13:38:39.805Z,18.79
2022-10-23T13:41:13.865Z,18.78
2022-10-23T13:43:44.234Z,18.80
2022-10-23T13:46:15.567Z,18.88
2022-10-23T13:48:46.019Z,19.01
2022-10-23T13:51:17.453Z,19.09
2022-10-23T13:53:47.786Z,19.11
2022-10-23T13:56:18.825Z,19.08
2022-10-23T13:58:48.944Z,19.04
2022-10-23T14:01:22.507Z,18.97
2022-10-23T14:03:53.423Z,18.88
2022-10-23T14:06:23.787Z,18.79
2022-10-23T14:08:53.896Z,18.71
2022-10-23T14:11:24.501Z,18.58
2022-10-23T14:13:54.616Z,18.42
2022-10-23T14:16:24.671Z,18.33
2022-10-23T14:18:54.993Z,18.22
2022-10-23T14:21:25.573Z,18.13
2022-10-23T14:23:56.548Z,18.03
2022-10-23T14:26:27.660Z,17.95
2022-10-23T14:29:01.114Z,17.87
2022-10-23T14:31:35.367Z,17.81
2022-10-23T14:34:05.436Z,17.75
2022-10-23T14:36:49.266Z,17.70
2022-10-23T14:39:20.266Z,17.62
2022-10-23T14:41:50.390Z,17.56
2022-10-23T14:44:21.302Z,17.50
2022-10-23T14:46:52.095Z,17.47
2022-10-23T14:49:22.341Z,17.43
2022-10-23T14:51:52.571Z,17.39
2022-10-23T14:54:22.603Z,17.36
2022-10-23T14:56:52.659Z,17.32
2022-10-23T14:59:22.682Z,17.25
2022-10-23T15:04:27.752Z,17.15
2022-10-23T15:06:57.785Z,17.09
2022-10-23T15:09:27.848Z,16.99
2022-10-23T15:11:57.902Z,16.88
2022-10-23T15:14:28.081Z,16.80
2022-10-23T15:16:59.206Z,16.73
2022-10-23T15:19:29.299Z,16.66
2022-10-23T15:22:00.172Z,16.57
2022-10-23T15:24:30.228Z,16.46
2022-10-23T15:27:00.392Z,16.36
2022-10-23T15:29:30.513Z,16.24
2022-10-23T15:32:00.762Z,16.14
2022-10-23T15:34:32.517Z,16.05
2022-10-23T15:37:03.301Z,15.95
2022-10-23T15:39:35.552Z,15.85
2022-10-23T15:42:06.145Z,15.79
2022-10-23T15:44:36.244Z,15.75
2022-10-23T15:47:06.342Z,15.70
2022-10-23T15:49:37.104Z,15.66
2022-10-23T15:54:43.855Z,15.51
2022-10-23T15:57:13.888Z,15.45
2022-10-23T15:59:43.940Z,15.39
2022-10-23T16:02:14.209Z,15.33
2022-10-23T16:04:44.469Z,15.27
2022-10-23T16:07:14.499Z,15.23
2022-10-23T16:09:45.422Z,15.18
2022-10-23T16:12:15.575Z,15.13
2022-10-23T16:14:45.906Z,15.06
2022-10-23T16:19:51.338Z,14.95
2022-10-23T16:22:21.394Z,14.91
2022-10-23T16:24:51.452Z,14.87
2022-10-23T16:27:21.520Z,14.82
2022-10-23T16:29:51.700Z,14.77
2022-10-23T16:32:21.754Z,14.73
2022-10-23T16:34:51.854Z,14.68
2022-10-23T16:37:21.906Z,14.66
2022-10-23T16:39:51.995Z,14.63
2022-10-23T16:42:22.007Z,14.60
2022-10-23T16:44:52.156Z,14.56
2022-10-23T16:47:22.468Z,14.52
2022-10-23T16:49:52.533Z,14.51
2022-10-23T16:52:22.797Z,14.52
2022-10-23T16:54:52.876Z,14.52
2022-10-23T16:57:22.920Z,14.50
2022-10-23T16:59:52.975Z,14.49
2022-10-23T17:02:23.115Z,14.49
2022-10-23T17:04:54.845Z,14.47
2022-10-23T17:07:24.942Z,14.47
2022-10-23T17:09:55.243Z,14.46
2022-10-23T17:12:25.278Z,14.44
2022-10-23T17:14:55.348Z,14.44
2022-10-23T17:17:25.382Z,14.41
2022-10-23T17:19:58.677Z,14.40
2022-10-23T17:22:28.686Z,14.39
2022-10-23T17:24:59.584Z,14.37
2022-10-23T17:27:29.637Z,14.36
2022-10-23T17:29:59.705Z,14.35
2022-10-23T17:32:29.753Z,14.34
2022-10-23T17:34:59.844Z,14.31
2022-10-23T17:37:29.889Z,14.29
2022-10-23T17:40:02.538Z,14.27
2022-10-23T17:42:33.001Z,14.25
2022-10-23T17:45:05.717Z,14.22
2022-10-23T17:47:35.760Z,14.16
2022-10-23T17:50:17.826Z,14.10
2022-10-23T17:52:51.157Z,14.07
2022-10-23T17:55:21.222Z,14.03
2022-10-23T17:57:51.283Z,14.00
2022-10-23T18:00:29.835Z,13.96
2022-10-23T18:02:59.876Z,13.92
2022-10-23T18:05:30.022Z,13.90
2022-10-23T18:08:00.363Z,13.88
2022-10-23T18:10:37.595Z,13.85
2022-10-23T18:13:08.174Z,13.82
2022-10-23T18:15:39.773Z,13.80
2022-10-23T18:18:10.085Z,13.79
2022-10-23T18:20:47.551Z,13.78
2022-10-23T18:23:17.576Z,13.75
2022-10-23T18:28:08.736Z,13.69
2022-10-23T18:33:14.679Z,13.60
2022-10-23T18:35:45.279Z,13.59
2022-10-23T18:38:17.978Z,13.60
2022-10-23T18:40:56.814Z,13.61
2022-10-23T18:43:42.540Z,13.62
2022-10-23T18:46:14.349Z,13.60
2022-10-23T18:48:44.592Z,13.60
2022-10-23T18:51:15.896Z,13.60
2022-10-23T18:53:47.780Z,13.61
2022-10-23T18:56:22.359Z,13.63
2022-10-23T18:58:53.975Z,13.64
2022-10-23T19:01:27.166Z,13.64
2022-10-23T19:03:58.290Z,13.61
2022-10-23T19:06:28.864Z,13.59
2022-10-23T19:08:59.099Z,13.59
2022-10-23T19:11:29.953Z,13.62
2022-10-23T19:14:01.152Z,13.64
2022-10-23T19:16:34.571Z,13.66
2022-10-23T19:19:08.602Z,13.66
2022-10-23T19:21:39.407Z,13.65
2022-10-23T19:24:12.135Z,13.62
2022-10-23T19:26:43.115Z,13.62
2022-10-23T19:29:16.643Z,13.64
2022-10-23T19:31:49.299Z,13.65
2022-10-23T19:34:21.644Z,13.66
2022-10-23T19:36:52.851Z,13.64
2022-10-23T19:39:23.446Z,13.63
2022-10-23T19:41:53.798Z,13.61
2022-10-23T19:44:24.660Z,13.58
2022-10-23T19:46:54.782Z,13.57
2022-10-23T19:49:25.654Z,13.57
2022-10-23T19:51:55.704Z,13.56
2022-10-23T19:54:26.620Z,13.53
2022-10-23T19:56:57.302Z,13.50
2022-10-23T19:59:29.291Z,13.46
2022-10-23T20:01:59.533Z,13.43
2022-10-23T20:04:30.019Z,13.42
2022-10-23T20:07:00.164Z,13.40
2022-10-23T20:09:30.799Z,13.37
2022-10-23T20:12:00.824Z,13.34
2022-10-23T20:14:30.911Z,13.32
2022-10-23T20:17:01.677Z,13.31
2022-10-23T20:19:31.979Z,13.30
2022-10-23T20:22:01.961Z,13.30
2022-10-23T20:24:32.854Z,13.28
2022-10-23T20:27:02.972Z,13.27
2022-10-23T20:29:33.955Z,13.25
2022-10-23T20:32:04.075Z,13.26
2022-10-23T20:34:34.334Z,13.26
2022-10-23T20:37:04.431Z,13.28
2022-10-23T20:39:35.849Z,13.28
2022-10-23T20:42:05.951Z,13.28
2022-10-23T20:44:36.446Z,13.27
2022-10-23T20:47:06.622Z,13.27
2022-10-23T20:49:36.785Z,13.28
2022-10-23T20:52:07.206Z,13.27
2022-10-23T20:54:39.095Z,13.24
2022-10-23T20:57:09.113Z,13.20
2022-10-23T20:59:39.178Z,13.18
2022-10-23T21:02:10.794Z,13.16
2022-10-23T21:04:41.012Z,13.14
2022-10-23T21:07:11.785Z,13.12
2022-10-23T21:09:42.097Z,13.11
2022-10-23T21:12:12.130Z,13.10
2022-10-23T21:14:42.502Z,13.07
2022-10-23T21:17:16.888Z,13.08
2022-10-23T21:19:47.022Z,13.06
2022-10-23T21:22:17.047Z,13.04
2022-10-23T21:24:47.212Z,13.01
2022-10-23T21:27:17.368Z,12.95
2022-10-23T21:29:47.480Z,12.92
2022-10-23T21:32:19.153Z,12.91
2022-10-23T21:34:49.231Z,12.90
2022-10-23T21:37:19.287Z,12.88
2022-10-23T21:39:49.351Z,12.88
2022-10-23T21:42:19.471Z,12.86
2022-10-23T21:44:49.544Z,12.85
2022-10-23T21:47:19.655Z,12.84
2022-10-23T21:49:49.691Z,12.82
2022-10-23T21:52:20.003Z,12.80
2022-10-23T21:54:55.335Z,12.82
2022-10-23T21:57:25.364Z,12.82
2022-10-23T21:59:56.494Z,12.82
2022-10-23T22:02:26.983Z,12.84
2022-10-23T22:04:57.944Z,12.84
2022-10-23T22:09:59.091Z,12.85
2022-10-23T22:12:29.222Z,12.87
2022-10-23T22:15:00.151Z,12.87
2022-10-23T22:17:33.406Z,12.89
2022-10-23T22:20:04.363Z,12.90
2022-10-23T22:22:34.382Z,12.91
2022-10-23T22:25:06.203Z,12.92
2022-10-23T22:27:37.991Z,12.94
2022-10-23T22:30:22.951Z,12.95
2022-10-23T22:32:52.998Z,12.97
2022-10-23T22:35:26.367Z,13.00
2022-10-23T22:37:56.447Z,13.03
2022-10-23T22:40:33.289Z,13.04
2022-10-23T22:43:03.358Z,13.06
2022-10-23T22:45:33.443Z,13.08
2022-10-23T22:48:03.463Z,13.10
2022-10-23T22:50:36.914Z,13.10
2022-10-23T22:53:08.555Z,13.10
2022-10-23T22:55:41.859Z,13.09
2022-10-23T22:58:11.912Z,13.10
2022-10-23T23:00:44.886Z,13.09
2022-10-23T23:03:14.982Z,13.06
2022-10-23T23:05:46.161Z,13.03
2022-10-23T23:08:16.415Z,13.00
2022-10-23T23:10:59.470Z,12.97
2022-10-23T23:13:29.614Z,12.96
2022-10-23T23:16:00.745Z,12.95
2022-10-23T23:18:31.003Z,12.94
2022-10-23T23:21:05.472Z,12.94
2022-10-23T23:23:35.635Z,12.94
2022-10-23T23:26:07.336Z,12.96
2022-10-23T23:28:37.856Z,12.98
2022-10-23T23:31:11.763Z,13.02
2022-10-23T23:33:41.928Z,13.05
2022-10-23T23:36:14.009Z,13.08
2022-10-23T23:38:44.892Z,13.10
2022-10-23T23:41:17.943Z,13.12
2022-10-23T23:43:48.100Z,13.12
2022-10-23T23:46:18.758Z,13.12
2022-10-23T23:48:49.724Z,13.13
2022-10-23T23:51:23.428Z,13.12
2022-10-23T23:53:53.857Z,13.10
2022-10-23T23:56:23.919Z,13.08
2022-10-23T23:58:53.946Z,13.05
